Time;durP1;ratioP1;P1;durP2;ratioP2;P2;SDS_P1;SDS_P2;PMS_P1;PMS_P2;Temp;Humidity;BMP_temperature;BMP_pressure;BME280_temperature;BME280_humidity;BME280_pressure;Samples;Min_cycle;Max_cycle;Signal;HPM_P1;HPM_P2
2023/03/23 05:30:48;;;;;;;15.27;3.72;;;13.20;83.40;;;;;;5763728;23;20431;-76
2023/03/23 05:33:14;;;;;;;10.32;1.88;;;13.30;83.20;;;;;;4966730;28;20038;-78
2023/03/23 05:35:40;;;;;;;12.73;2.78;;;13.30;82.80;;;;;;4974037;28;20110;-80
2023/03/23 05:38:06;;;;;;;11.38;2.63;;;13.30;82.90;;;;;;4959389;28;20449;-78
2023/03/23 05:40:31;;;;;;;15.30;3.05;;;13.40;82.60;;;;;;4959411;28;20438;-78
2023/03/23 05:42:58;;;;;;;8.70;2.20;;;13.40;82.50;;;;;;4969362;28;20105;-78
2023/03/23 05:45:26;;;;;;;12.93;3.00;;;13.40;82.40;;;;;;4957318;29;20046;-78
2023/03/23 05:47:52;;;;;;;7.45;2.13;;;13.40;82.30;;;;;;4964239;28;20022;-77
2023/03/23 05:50:18;;;;;;;13.90;2.85;;;13.40;82.40;;;;;;4976561;28;20046;-76
2023/03/23 05:52:44;;;;;;;10.65;1.98;;;13.40;82.30;;;;;;4957306;29;20368;-79
2023/03/23 05:55:10;;;;;;;7.85;2.25;;;13.40;82.10;;;;;;4957218;28;20047;-75
2023/03/23 05:57:36;;;;;;;9.80;2.45;;;13.30;82.00;;;;;;4944993;28;20030;-80
2023/03/23 06:00:19;;;;;;;15.40;2.50;;;13.40;81.80;;;;;;4972585;28;20027;-83
2023/03/23 06:02:46;;;;;;;10.88;2.10;;;13.30;82.00;;;;;;4972987;28;20023;-81
2023/03/23 06:05:13;;;;;;;8.38;1.67;;;13.30;82.00;;;;;;4974349;28;20494;-81
2023/03/23 06:07:39;;;;;;;10.68;2.25;;;13.40;81.90;;;;;;4951731;28;20038;-81
2023/03/23 06:10:08;;;;;;;14.13;2.80;;;13.40;81.90;;;;;;4958341;28;20509;-81
2023/03/23 06:12:35;;;;;;;12.68;2.45;;;13.40;81.80;;;;;;4956524;28;20524;-81
2023/03/23 06:15:01;;;;;;;14.10;2.92;;;13.40;81.80;;;;;;4959015;28;20078;-81
2023/03/23 06:17:27;;;;;;;15.98;3.38;;;13.40;81.60;;;;;;4957816;28;20513;-79
2023/03/23 06:19:53;;;;;;;11.25;3.10;;;13.40;81.70;;;;;;4958024;28;20018;-81
2023/03/23 06:22:19;;;;;;;9.82;2.53;;;13.40;81.40;;;;;;4976036;28;20080;-80
2023/03/23 06:24:44;;;;;;;11.48;2.15;;;13.40;81.40;;;;;;4962598;28;20605;-80
2023/03/23 06:27:10;;;;;;;10.27;2.80;;;13.50;81.40;;;;;;4960366;28;20085;-79
2023/03/23 06:29:37;;;;;;;18.20;3.20;;;13.50;81.30;;;;;;4977219;28;20494;-79
2023/03/23 06:32:04;;;;;;;14.77;3.30;;;13.50;81.20;;;;;;4979962;28;20043;-79
2023/03/23 06:34:32;;;;;;;13.60;3.20;;;13.50;81.20;;;;;;4977912;28;20050;-79
2023/03/23 06:36:58;;;;;;;12.90;2.60;;;13.50;81.20;;;;;;4980168;28;20034;-81
2023/03/23 06:39:24;;;;;;;12.77;2.78;;;13.50;80.90;;;;;;4962070;28;20030;-80
2023/03/23 06:41:50;;;;;;;18.02;3.65;;;13.50;81.00;;;;;;4979037;28;20030;-79
2023/03/23 06:44:16;;;;;;;14.02;3.17;;;13.60;81.10;;;;;;4976498;28;20086;-79
2023/03/23 06:46:42;;;;;;;12.85;2.65;;;13.60;81.10;;;;;;4978312;28;20026;-79
2023/03/23 06:49:14;;;;;;;15.65;2.97;;;13.60;80.90;;;;;;4981544;28;20043;-80
2023/03/23 06:51:39;;;;;;;16.85;2.92;;;13.70;80.90;;;;;;4961574;28;20026;-80
2023/03/23 06:54:08;;;;;;;13.10;2.83;;;13.70;80.90;;;;;;4978129;28;20047;-81
2023/03/23 06:56:34;;;;;;;14.95;3.35;;;13.70;80.80;;;;;;4976443;28;20538;-80
2023/03/23 06:58:59;;;;;;;11.75;3.15;;;13.80;80.70;;;;;;4979695;28;20034;-79
2023/03/23 07:01:26;;;;;;;13.35;2.58;;;13.80;80.60;;;;;;4978143;28;20081;-80
2023/03/23 07:03:58;;;;;;;13.80;2.65;;;13.80;80.60;;;;;;4976274;28;20034;-80
2023/03/23 07:06:26;;;;;;;9.93;2.35;;;13.90;80.60;;;;;;4977623;28;20426;-80
2023/03/23 07:08:51;;;;;;;8.93;3.03;;;13.90;80.50;;;;;;4961703;28;20438;-80
2023/03/23 07:11:17;;;;;;;17.10;3.22;;;13.90;80.40;;;;;;4966320;28;20030;-81
2023/03/23 07:13:43;;;;;;;19.27;3.00;;;13.90;80.30;;;;;;4961573;28;20076;-79
2023/03/23 07:16:10;;;;;;;13.85;3.17;;;13.90;80.30;;;;;;4968286;28;20031;-79
2023/03/23 07:18:36;;;;;;;17.08;3.35;;;14.00;80.30;;;;;;4963274;28;20557;-80
2023/03/23 07:21:02;;;;;;;14.02;2.90;;;14.00;80.10;;;;;;4958533;28;20023;-80
2023/03/23 07:23:30;;;;;;;18.85;3.75;;;14.00;80.10;;;;;;4956815;28;20027;-80
2023/03/23 07:25:56;;;;;;;10.30;2.25;;;14.10;79.80;;;;;;4959520;28;20023;-80
2023/03/23 07:28:22;;;;;;;19.38;3.95;;;14.20;80.00;;;;;;4964353;28;20102;-78
2023/03/23 07:30:48;;;;;;;20.38;3.22;;;14.20;79.80;;;;;;4971133;28;20114;-79
2023/03/23 07:33:14;;;;;;;15.55;3.35;;;14.30;79.70;;;;;;4953249;28;20054;-80
2023/03/23 07:35:39;;;;;;;12.68;3.30;;;14.30;79.40;;;;;;4959416;28;20020;-81
2023/03/23 07:38:06;;;;;;;21.50;3.85;;;14.30;79.60;;;;;;4962532;28;20039;-80
2023/03/23 07:40:35;;;;;;;14.95;2.28;;;14.40;79.30;;;;;;4961583;28;20022;-80
2023/03/23 07:43:03;;;;;;;8.70;2.20;;;14.30;79.20;;;;;;4961402;28;20494;-78
2023/03/23 07:45:29;;;;;;;18.45;3.03;;;14.40;79.20;;;;;;4963725;28;20024;-79
2023/03/23 07:47:55;;;;;;;18.65;2.70;;;14.40;79.20;;;;;;4967234;28;20022;-79
2023/03/23 07:50:23;;;;;;;14.40;2.55;;;14.50;78.70;;;;;;4959253;28;20031;-79
2023/03/23 07:52:50;;;;;;;14.85;2.85;;;14.70;78.40;;;;;;4957600;28;20023;-79
2023/03/23 07:55:19;;;;;;;17.95;3.95;;;14.80;78.00;;;;;;4965650;28;20059;-79
2023/03/23 07:57:46;;;;;;;9.85;2.58;;;14.90;77.70;;;;;;4965880;28;20034;-79
2023/03/23 08:00:18;;;;;;;13.48;3.35;;;14.90;77.30;;;;;;4965348;28;20022;-79
2023/03/23 08:02:48;;;;;;;14.73;3.38;;;14.80;77.60;;;;;;4970588;28;20749;-79
2023/03/23 08:05:15;;;;;;;20.55;3.78;;;14.80;77.20;;;;;;4976727;28;20520;-79
2023/03/23 08:07:42;;;;;;;19.48;3.40;;;14.70;77.40;;;;;;4975721;28;20031;-79
2023/03/23 08:10:12;;;;;;;17.67;3.15;;;14.80;77.50;;;;;;4972999;28;20038;-79
2023/03/23 08:12:39;;;;;;;13.68;3.80;;;14.80;77.50;;;;;;4974777;28;20042;-79
2023/03/23 08:15:06;;;;;;;18.30;3.35;;;14.70;77.60;;;;;;4977826;28;20046;-79
2023/03/23 08:17:34;;;;;;;17.20;3.10;;;14.70;77.50;;;;;;4968909;28;20852;-79
2023/03/23 08:20:00;;;;;;;14.82;2.85;;;14.80;77.50;;;;;;4976891;28;20620;-79
2023/03/23 08:22:26;;;;;;;18.80;2.90;;;14.80;77.40;;;;;;4957687;28;20143;-79
2023/03/23 08:24:52;;;;;;;13.50;3.47;;;14.70;77.60;;;;;;4977652;28;20058;-79
2023/03/23 08:27:18;;;;;;;11.15;2.80;;;14.80;77.70;;;;;;4977763;28;20077;-79
2023/03/23 08:29:47;;;;;;;22.00;4.38;;;14.80;77.60;;;;;;4972672;28;20090;-79
2023/03/23 08:32:13;;;;;;;15.43;4.32;;;14.90;77.40;;;;;;4958123;29;20043;-79
2023/03/23 08:34:39;;;;;;;10.88;3.10;;;15.00;77.10;;;;;;4975437;28;20107;-80
2023/03/23 08:37:04;;;;;;;14.43;2.97;;;15.20;76.80;;;;;;4971183;28;20032;-79
2023/03/23 08:39:30;;;;;;;15.02;3.20;;;15.20;76.70;;;;;;4974494;28;20031;-80
2023/03/23 08:41:56;;;;;;;13.35;2.78;;;15.30;76.30;;;;;;4970567;28;20026;-80
2023/03/23 08:44:22;;;;;;;14.15;3.63;;;15.30;76.20;;;;;;4967110;28;20066;-79
2023/03/23 08:46:49;;;;;;;11.18;3.20;;;15.30;75.90;;;;;;4972349;28;20049;-80
2023/03/23 08:49:15;;;;;;;19.83;3.20;;;15.40;75.70;;;;;;4972467;28;20023;-80
2023/03/23 08:51:41;;;;;;;18.17;3.67;;;15.30;75.80;;;;;;4940294;29;20027;-79
2023/03/23 08:54:07;;;;;;;19.77;2.90;;;15.30;75.70;;;;;;4953175;28;20058;-80
2023/03/23 08:56:33;;;;;;;24.73;3.85;;;15.20;75.30;;;;;;4958405;28;20099;-79
2023/03/23 08:58:58;;;;;;;17.30;3.10;;;15.20;75.60;;;;;;4968739;28;20067;-80
2023/03/23 09:01:24;;;;;;;16.27;2.70;;;15.10;75.80;;;;;;4962891;28;20086;-79
2023/03/23 09:03:50;;;;;;;19.05;3.40;;;15.10;75.90;;;;;;4968371;28;20031;-80
2023/03/23 09:06:16;;;;;;;12.00;2.78;;;15.10;76.00;;;;;;4976766;28;20023;-79
2023/03/23 09:08:41;;;;;;;16.60;3.65;;;15.10;76.00;;;;;;4976740;28;20055;-79
2023/03/23 09:11:09;;;;;;;15.52;2.45;;;15.10;76.20;;;;;;4973521;28;20045;-79
2023/03/23 09:13:36;;;;;;;16.02;3.67;;;14.90;76.20;;;;;;4973599;28;20034;-79
2023/03/23 09:16:03;;;;;;;17.52;3.85;;;14.90;76.30;;;;;;4967970;28;20150;-79
2023/03/23 09:18:32;;;;;;;15.35;3.08;;;14.80;76.70;;;;;;4969543;28;20026;-79
2023/03/23 09:20:59;;;;;;;14.73;3.05;;;14.80;76.90;;;;;;4959015;28;20045;-79
2023/03/23 09:23:25;;;;;;;8.70;2.88;;;14.80;77.00;;;;;;4975258;28;20030;-78
2023/03/23 09:25:51;;;;;;;11.20;2.90;;;14.90;76.80;;;;;;4963095;28;20031;-79
2023/03/23 09:28:18;;;;;;;14.23;3.03;;;15.00;76.50;;;;;;4966995;28;20023;-79
2023/03/23 09:30:45;;;;;;;15.18;2.50;;;15.10;76.50;;;;;;4974445;28;20050;-79
2023/03/23 09:33:11;;;;;;;13.02;2.47;;;15.20;76.20;;;;;;4976418;28;20031;-80
2023/03/23 09:35:38;;;;;;;11.70;2.90;;;15.30;75.50;;;;;;4976332;28;20034;-80
2023/03/23 09:38:05;;;;;;;18.33;3.35;;;15.30;75.10;;;;;;4966300;28;20414;-80
2023/03/23 09:40:46;;;;;;;10.48;2.22;;;15.20;75.10;;;;;;4976658;28;20027;-79
2023/03/23 09:43:27;;;;;;;15.88;2.78;;;15.20;75.30;;;;;;4955839;28;20031;-80
2023/03/23 09:46:19;;;;;;;14.43;2.63;;;15.20;75.10;;;;;;4971141;28;20101;-80
2023/03/23 09:48:51;;;;;;;10.95;2.97;;;15.30;75.00;;;;;;4977420;28;20030;-80
2023/03/23 09:51:54;;;;;;;17.88;2.92;;;15.30;75.10;;;;;;4976164;28;20031;-80
2023/03/23 09:54:39;;;;;;;10.02;2.33;;;15.30;75.30;;;;;;4972502;28;20027;-80
2023/03/23 09:57:16;;;;;;;7.05;1.73;;;15.80;74.80;;;;;;4942424;29;20039;-80
2023/03/23 09:59:54;;;;;;;15.32;3.05;;;16.10;73.60;;;;;;4974387;28;20441;-80
2023/03/23 10:03:14;;;;;;;13.23;2.83;;;16.50;72.40;;;;;;4969683;28;20055;-80
2023/03/23 10:05:47;;;;;;;19.75;2.42;;;16.60;72.10;;;;;;4863887;29;20537;-80
2023/03/23 10:08:21;;;;;;;11.02;2.35;;;16.20;71.30;;;;;;4959682;28;20055;-81
2023/03/23 10:11:14;;;;;;;8.27;1.88;;;16.10;71.50;;;;;;4979707;28;20034;-80
2023/03/23 10:14:14;;;;;;;7.32;2.28;;;16.00;71.80;;;;;;4965160;28;20050;-80
2023/03/23 10:16:50;;;;;;;7.75;2.88;;;16.10;72.40;;;;;;4979634;28;20063;-80
2023/03/23 10:19:29;;;;;;;13.38;1.92;;;16.10;71.80;;;;;;4979655;28;20494;-77
2023/03/23 10:22:03;;;;;;;7.82;2.22;;;16.00;71.00;;;;;;4969374;28;20050;-77
2023/03/23 10:24:41;;;;;;;11.98;2.13;;;16.20;71.20;;;;;;4979442;28;20027;-77
2023/03/23 10:27:26;;;;;;;10.65;2.33;;;16.40;70.90;;;;;;4958782;29;20069;-77
2023/03/23 10:30:11;;;;;;;12.27;2.72;;;16.30;70.40;;;;;;4961057;29;20054;-77
2023/03/23 10:32:50;;;;;;;9.32;2.75;;;16.30;71.00;;;;;;4961722;28;20035;-76
2023/03/23 10:35:23;;;;;;;18.88;2.95;;;16.30;70.30;;;;;;4960407;29;20035;-77
2023/03/23 10:37:56;;;;;;;8.68;2.17;;;16.50;70.20;;;;;;4960603;29;20062;-76
2023/03/23 10:40:27;;;;;;;9.50;1.88;;;16.70;68.90;;;;;;4960448;29;20019;-77
2023/03/23 10:42:54;;;;;;;10.48;1.73;;;16.80;68.80;;;;;;4960097;28;20019;-76
2023/03/23 10:45:26;;;;;;;11.48;2.53;;;16.90;69.00;;;;;;4960388;29;20050;-76
2023/03/23 10:48:14;;;;;;;10.60;2.65;;;17.00;68.70;;;;;;4967730;28;20026;-76
2023/03/23 10:50:43;;;;;;;11.85;2.20;;;16.90;67.40;;;;;;4970824;28;20026;-77
2023/03/23 10:53:35;;;;;;;10.45;2.28;;;17.00;68.20;;;;;;4960350;29;20031;-76
2023/03/23 10:56:02;;;;;;;10.95;2.10;;;16.80;68.70;;;;;;4959036;28;20059;-76
2023/03/23 10:58:34;;;;;;;10.55;1.98;;;16.60;68.70;;;;;;4943091;29;20038;-76
2023/03/23 11:01:01;;;;;;;8.65;2.10;;;16.40;69.40;;;;;;4960174;29;20030;-76
2023/03/23 11:03:38;;;;;;;10.25;1.90;;;16.30;69.70;;;;;;4967218;28;20046;-76
2023/03/23 11:06:06;;;;;;;10.05;2.58;;;16.30;70.00;;;;;;4979480;28;20026;-76
2023/03/23 11:09:10;;;;;;;6.82;1.55;;;16.30;70.40;;;;;;4957193;28;20210;-77
2023/03/23 11:11:42;;;;;;;13.90;3.50;;;16.10;70.80;;;;;;4974279;28;20051;-76
2023/03/23 11:14:27;;;;;;;10.65;2.45;;;16.20;71.60;;;;;;4971689;28;20027;-76
2023/03/23 11:16:55;;;;;;;7.97;1.80;;;16.20;71.50;;;;;;4960071;28;20457;-76
2023/03/23 11:19:35;;;;;;;9.73;3.03;;;16.20;71.60;;;;;;4970422;28;20035;-76
2023/03/23 11:22:04;;;;;;;10.77;2.15;;;16.10;72.20;;;;;;4978879;28;20015;-76
2023/03/23 11:24:33;;;;;;;10.00;2.63;;;16.00;72.20;;;;;;4979104;28;20370;-76
2023/03/23 11:27:00;;;;;;;10.23;2.27;;;16.10;72.20;;;;;;4970648;28;20034;-78
2023/03/23 11:29:28;;;;;;;9.68;2.85;;;16.20;71.70;;;;;;4959957;29;20066;-78
2023/03/23 11:32:09;;;;;;;11.65;3.20;;;16.30;71.60;;;;;;4958994;28;20066;-77
2023/03/23 11:34:41;;;;;;;20.52;3.45;;;16.40;71.30;;;;;;4953169;28;20376;-77
2023/03/23 11:37:32;;;;;;;12.40;2.45;;;16.50;70.20;;;;;;4959435;29;20028;-77
2023/03/23 11:39:58;;;;;;;17.38;2.58;;;16.30;70.10;;;;;;4969873;28;20031;-77
2023/03/23 11:42:28;;;;;;;14.52;2.97;;;16.20;70.40;;;;;;4942229;29;20043;-77
2023/03/23 11:44:54;;;;;;;;;;;16.00;70.70;;;;;;4959754;28;20071;-77
2023/03/23 11:47:32;;;;;;;14.80;3.03;;;15.90;71.30;;;;;;4959060;29;19913;-77
2023/03/23 11:50:22;;;;;;;13.68;3.00;;;15.90;71.80;;;;;;4942349;29;20035;-76
2023/03/23 11:53:33;;;;;;;11.45;2.92;;;15.80;72.20;;;;;;4959159;29;20027;-77
2023/03/23 11:56:25;;;;;;;13.57;3.03;;;15.90;72.60;;;;;;4948483;29;20075;-77
2023/03/23 11:58:53;;;;;;;21.08;3.17;;;16.00;72.20;;;;;;4955050;28;20043;-75
2023/03/23 12:01:47;;;;;;;17.00;3.60;;;16.10;71.60;;;;;;4947992;28;20186;-77
2023/03/23 12:04:24;;;;;;;16.23;2.63;;;16.10;71.90;;;;;;4978230;28;20486;-78
2023/03/23 12:07:21;;;;;;;20.58;2.90;;;16.20;72.00;;;;;;4978402;28;20031;-77
2023/03/23 12:09:56;;;;;;;21.50;3.60;;;16.30;71.80;;;;;;4964945;28;20027;-78
2023/03/23 12:12:36;;;;;;;13.77;3.33;;;16.40;71.00;;;;;;4977556;28;20023;-76
2023/03/23 12:15:21;;;;;;;;;;;16.50;71.00;;;;;;4978766;28;20018;-76
2023/03/23 12:18:11;;;;;;;14.00;3.20;;;16.50;70.70;;;;;;4965461;28;19914;-77
2023/03/23 12:20:45;;;;;;;8.85;2.08;;;16.50;70.40;;;;;;4941439;29;20562;-78
2023/03/23 12:23:29;;;;;;;11.60;2.95;;;16.60;70.20;;;;;;4958161;28;20032;-78
2023/03/23 12:26:31;;;;;;;19.05;3.67;;;16.60;70.40;;;;;;4958702;29;20101;-78
2023/03/23 12:29:02;;;;;;;12.90;3.63;;;16.70;70.20;;;;;;4957614;29;20038;-78
2023/03/23 12:31:42;;;;;;;10.07;2.70;;;16.90;69.70;;;;;;4941032;29;20059;-77
2023/03/23 12:34:30;;;;;;;11.43;2.35;;;16.90;68.80;;;;;;4971484;28;20114;-78
2023/03/23 12:37:08;;;;;;;16.42;2.97;;;17.20;69.20;;;;;;4960411;28;20039;-78
2023/03/23 12:39:53;;;;;;;17.23;3.35;;;17.40;68.60;;;;;;4977825;28;20031;-77
2023/03/23 12:42:37;;;;;;;18.63;2.72;;;17.50;67.70;;;;;;4958110;29;20032;-77
2023/03/23 12:45:18;;;;;;;17.00;3.42;;;17.40;67.10;;;;;;4957855;28;20034;-77
2023/03/23 12:47:57;;;;;;;12.05;2.40;;;17.30;67.70;;;;;;4963358;28;20053;-82
2023/03/23 12:50:45;;;;;;;12.25;2.65;;;17.30;67.60;;;;;;4997073;28;20073;-76
2023/03/23 12:53:28;;;;;;;12.85;2.70;;;17.40;67.10;;;;;;4971154;28;20031;-77
2023/03/23 12:56:09;;;;;;;12.68;3.17;;;17.50;66.70;;;;;;4958129;28;20039;-79
2023/03/23 12:58:44;;;;;;;13.75;3.08;;;17.60;66.20;;;;;;4940603;29;20043;-77
2023/03/23 13:01:21;;;;;;;10.55;2.90;;;17.60;66.20;;;;;;4956807;29;20023;-77
2023/03/23 13:04:12;;;;;;;7.60;2.75;;;17.60;65.60;;;;;;4968244;28;20019;-77
2023/03/23 13:06:43;;;;;;;8.30;1.95;;;17.50;65.50;;;;;;4961617;28;20042;-77
2023/03/23 13:09:12;;;;;;;18.55;2.95;;;17.40;66.00;;;;;;4957910;29;20031;-77
2023/03/23 13:11:41;;;;;;;14.65;2.95;;;17.50;65.80;;;;;;4973740;28;20512;-77
2023/03/23 13:14:26;;;;;;;15.98;3.60;;;17.50;66.30;;;;;;4972803;28;20027;-77
2023/03/23 13:17:01;;;;;;;9.75;2.60;;;17.60;65.70;;;;;;4959543;28;20037;-77
2023/03/23 13:19:53;;;;;;;14.85;2.78;;;17.70;65.10;;;;;;4974369;28;20043;-77
2023/03/23 13:22:27;;;;;;;16.45;3.10;;;17.60;65.20;;;;;;4957450;29;20023;-77
2023/03/23 13:25:03;;;;;;;11.98;2.35;;;17.70;65.00;;;;;;4940681;29;20098;-77
2023/03/23 13:27:29;;;;;;;15.52;2.67;;;17.70;64.70;;;;;;4958099;29;20027;-77
2023/03/23 13:29:57;;;;;;;23.30;3.65;;;17.70;64.40;;;;;;4957141;28;20475;-77
2023/03/23 13:32:37;;;;;;;10.18;2.65;;;17.60;64.00;;;;;;4957182;29;20047;-79
2023/03/23 13:35:11;;;;;;;10.70;2.00;;;17.50;62.60;;;;;;4940501;29;20031;-77
2023/03/23 13:37:45;;;;;;;10.07;2.35;;;17.70;62.40;;;;;;4957255;28;20035;-77
2023/03/23 13:40:17;;;;;;;8.73;2.35;;;17.70;62.50;;;;;;4957680;29;20038;-77
2023/03/23 13:42:52;;;;;;;16.10;3.05;;;17.80;60.90;;;;;;4966028;28;20030;-77
2023/03/23 13:45:22;;;;;;;9.40;2.83;;;17.70;60.70;;;;;;4959777;28;20031;-77
2023/03/23 13:47:49;;;;;;;14.85;3.00;;;17.70;61.00;;;;;;4962030;28;20026;-77
2023/03/23 13:50:17;;;;;;;14.27;2.53;;;17.70;61.30;;;;;;4995760;28;20043;-78
2023/03/23 13:52:53;;;;;;;14.85;2.67;;;17.70;60.10;;;;;;4978843;28;20097;-77
2023/03/23 13:55:21;;;;;;;18.50;3.10;;;17.70;60.40;;;;;;4970534;28;20493;-78
2023/03/23 13:57:57;;;;;;;13.55;2.70;;;17.70;58.50;;;;;;4940329;29;20030;-78
2023/03/23 14:00:29;;;;;;;11.52;2.83;;;17.50;59.30;;;;;;4939739;29;20046;-77
2023/03/23 14:03:10;;;;;;;13.27;2.65;;;17.30;58.00;;;;;;4972433;28;20102;-77
2023/03/23 14:05:55;;;;;;;10.68;2.67;;;17.30;59.10;;;;;;4972339;28;20379;-77
2023/03/23 14:08:30;;;;;;;10.98;2.22;;;17.30;59.70;;;;;;4956659;29;20581;-78
2023/03/23 14:11:02;;;;;;;11.70;3.00;;;17.20;58.40;;;;;;4967661;28;20540;-79
2023/03/23 14:13:57;;;;;;;12.98;2.72;;;17.20;60.40;;;;;;4973598;28;20035;-80
2023/03/23 14:16:39;;;;;;;8.57;1.80;;;17.10;60.70;;;;;;4957272;29;20031;-77
2023/03/23 14:19:24;;;;;;;13.27;3.75;;;17.30;60.00;;;;;;4956800;29;20581;-77
2023/03/23 14:21:58;;;;;;;11.32;2.40;;;17.50;59.20;;;;;;4939994;29;20038;-78
2023/03/23 14:24:27;;;;;;;7.65;2.90;;;17.60;58.60;;;;;;4956675;28;20058;-78
2023/03/23 14:27:10;;;;;;;12.57;2.78;;;17.50;57.30;;;;;;4956927;29;20103;-78
2023/03/23 14:29:36;;;;;;;7.35;2.60;;;17.30;56.60;;;;;;4957398;29;20046;-77
2023/03/23 14:32:02;;;;;;;12.82;2.47;;;17.30;57.60;;;;;;4957029;28;20460;-77
2023/03/23 14:34:31;;;;;;;7.95;2.00;;;17.10;58.10;;;;;;4966543;28;20098;-78
2023/03/23 14:36:58;;;;;;;9.55;2.47;;;17.10;58.50;;;;;;4956889;29;20035;-78
2023/03/23 14:39:26;;;;;;;8.13;1.65;;;17.00;59.00;;;;;;4956910;28;20407;-77
2023/03/23 14:42:02;;;;;;;8.95;2.25;;;16.70;61.70;;;;;;4957338;28;20481;-77
2023/03/23 14:44:33;;;;;;;10.60;3.20;;;16.50;64.00;;;;;;4958663;29;20023;-77
2023/03/23 14:47:05;;;;;;;10.60;2.08;;;16.60;65.30;;;;;;4960441;28;20071;-78
2023/03/23 14:49:35;;;;;;;6.72;2.10;;;16.60;65.70;;;;;;4979585;28;20030;-77
2023/03/23 14:52:24;;;;;;;7.20;1.85;;;16.70;66.70;;;;;;4986778;28;20023;-77
2023/03/23 14:54:50;;;;;;;8.25;1.73;;;16.80;67.30;;;;;;4942733;29;20039;-77
2023/03/23 14:57:29;;;;;;;8.05;2.33;;;16.60;68.40;;;;;;4942964;29;20042;-77
2023/03/23 14:59:55;;;;;;;11.07;2.33;;;16.50;69.10;;;;;;4959700;28;20110;-77
2023/03/23 15:02:32;;;;;;;8.70;1.55;;;16.40;69.90;;;;;;4959968;29;20029;-77
2023/03/23 15:05:17;;;;;;;6.13;1.67;;;16.30;70.70;;;;;;4960158;29;20034;-77
2023/03/23 15:07:47;;;;;;;3.40;1.20;;;16.20;71.90;;;;;;4959777;28;20051;-77
2023/03/23 15:10:17;;;;;;;8.80;1.83;;;16.00;72.80;;;;;;4964684;28;20050;-77
2023/03/23 15:12:46;;;;;;;;;;;16.00;72.60;;;;;;4979945;28;20033;-77
2023/03/23 15:15:30;;;;;;;5.93;1.50;;;16.00;73.10;;;;;;4978771;28;19910;-77
2023/03/23 15:17:57;;;;;;;7.03;2.10;;;16.00;73.70;;;;;;4978601;28;20508;-78
2023/03/23 15:20:42;;;;;;;5.57;2.03;;;15.80;74.40;;;;;;4964905;28;20067;-77
2023/03/23 15:23:14;;;;;;;4.57;2.15;;;15.80;74.60;;;;;;4965048;28;20324;-77
2023/03/23 15:25:48;;;;;;;4.68;1.65;;;15.60;75.50;;;;;;4977273;28;20027;-77
2023/03/23 15:28:29;;;;;;;6.07;1.48;;;15.50;76.10;;;;;;4979373;28;20026;-76
2023/03/23 15:30:59;;;;;;;5.22;1.48;;;15.40;76.90;;;;;;4978769;28;20050;-77
2023/03/23 15:33:28;;;;;;;6.28;1.65;;;15.40;77.30;;;;;;4974552;28;20031;-77
2023/03/23 15:35:56;;;;;;;4.30;1.80;;;15.40;77.50;;;;;;4978901;28;20034;-77
2023/03/23 15:38:29;;;;;;;7.90;1.83;;;15.30;78.30;;;;;;4978830;28;20031;-77
2023/03/23 15:40:58;;;;;;;1.95;0.93;;;15.20;78.60;;;;;;4959693;28;20126;-77
2023/03/23 15:43:35;;;;;;;6.60;1.45;;;15.20;79.10;;;;;;4959560;29;20051;-76
2023/03/23 15:46:23;;;;;;;2.88;1.20;;;15.00;79.60;;;;;;4959320;28;20482;-78
2023/03/23 15:48:59;;;;;;;3.42;1.23;;;14.90;80.30;;;;;;4981308;28;20619;-77
2023/03/23 15:51:30;;;;;;;5.97;1.40;;;14.90;80.80;;;;;;4957634;28;20035;-77
2023/03/23 15:53:56;;;;;;;3.45;1.15;;;14.80;80.80;;;;;;4957641;28;20023;-77
2023/03/23 15:56:24;;;;;;;3.05;1.30;;;14.80;80.90;;;;;;4959457;29;20035;-77
2023/03/23 15:58:50;;;;;;;3.28;1.42;;;14.70;81.50;;;;;;4959588;28;20382;-77
2023/03/23 16:01:19;;;;;;;4.88;1.48;;;14.70;81.70;;;;;;4960604;28;20144;-77
2023/03/23 16:03:54;;;;;;;6.18;1.20;;;14.70;81.20;;;;;;4969117;28;20023;-76
2023/03/23 16:06:23;;;;;;;5.10;1.30;;;14.70;81.30;;;;;;4978590;28;20027;-76
2023/03/23 16:08:49;;;;;;;3.22;0.75;;;14.80;81.70;;;;;;4961019;28;20115;-76
2023/03/23 16:11:16;;;;;;;4.88;1.15;;;14.80;81.60;;;;;;4971106;28;20062;-76
2023/03/23 16:13:43;;;;;;;2.85;0.98;;;14.80;80.60;;;;;;4978372;28;20419;-76
2023/03/23 16:16:14;;;;;;;1.83;1.02;;;14.80;80.40;;;;;;4965851;28;20114;-76
2023/03/23 16:18:39;;;;;;;2.38;1.00;;;14.80;80.00;;;;;;4958627;28;20031;-76
2023/03/23 16:21:06;;;;;;;4.00;1.50;;;14.70;80.00;;;;;;4958888;29;20043;-76
2023/03/23 16:23:31;;;;;;;5.72;1.42;;;14.60;80.30;;;;;;4958935;29;20506;-76
2023/03/23 16:25:57;;;;;;;2.90;1.00;;;14.60;80.80;;;;;;4958705;29;20769;-76
2023/03/23 16:28:22;;;;;;;3.05;1.35;;;14.50;80.90;;;;;;4958580;28;20093;-76
2023/03/23 16:30:48;;;;;;;4.57;1.13;;;14.50;81.20;;;;;;4957883;28;20150;-78
2023/03/23 16:33:14;;;;;;;3.85;1.30;;;14.40;82.00;;;;;;4964566;28;20082;-76
2023/03/23 16:35:40;;;;;;;4.57;1.70;;;14.40;82.10;;;;;;4968398;28;20026;-76
2023/03/23 16:38:06;;;;;;;2.65;1.23;;;14.50;82.30;;;;;;4958227;29;20490;-76
2023/03/23 16:40:32;;;;;;;6.32;1.35;;;14.50;82.30;;;;;;4958318;29;20118;-76
2023/03/23 16:42:58;;;;;;;2.35;1.40;;;14.50;82.40;;;;;;4976669;28;20033;-78
2023/03/23 16:45:25;;;;;;;6.68;2.03;;;14.50;82.20;;;;;;4962684;28;20109;-80
2023/03/23 16:47:51;;;;;;;5.43;2.00;;;14.50;82.20;;;;;;4975514;28;20143;-79
2023/03/23 16:50:17;;;;;;;1.88;1.10;;;14.50;82.50;;;;;;4977027;28;20027;-79
2023/03/23 16:52:46;;;;;;;3.25;1.30;;;14.50;82.30;;;;;;4974738;28;20031;-79
2023/03/23 16:55:13;;;;;;;3.22;1.25;;;14.50;82.50;;;;;;4975528;28;20065;-79
2023/03/23 16:57:39;;;;;;;1.73;1.35;;;14.40;82.80;;;;;;4974609;28;20043;-79
2023/03/23 17:00:08;;;;;;;3.60;1.00;;;14.40;82.70;;;;;;4974178;28;20030;-78
2023/03/23 17:02:35;;;;;;;2.30;1.25;;;14.40;82.70;;;;;;4970707;28;20042;-78
2023/03/23 17:05:02;;;;;;;3.95;1.20;;;14.50;82.80;;;;;;4973615;28;20023;-79
2023/03/23 17:07:28;;;;;;;1.90;1.20;;;14.40;82.90;;;;;;4970770;28;20030;-79
2023/03/23 17:09:54;;;;;;;3.95;1.40;;;14.30;84.30;;;;;;4974964;28;20041;-78
2023/03/23 17:12:20;;;;;;;5.78;2.53;;;14.30;84.50;;;;;;4973035;28;20026;-78
2023/03/23 17:14:46;;;;;;;2.78;1.30;;;14.30;84.70;;;;;;4958692;28;20015;-79
2023/03/23 17:17:12;;;;;;;4.22;1.48;;;14.40;84.00;;;;;;4968084;28;20074;-79
2023/03/23 17:19:38;;;;;;;2.25;1.30;;;14.30;83.60;;;;;;4975493;28;20058;-79
2023/03/23 17:22:05;;;;;;;4.75;1.88;;;14.30;83.40;;;;;;4972656;28;20034;-79
2023/03/23 17:24:30;;;;;;;2.53;2.03;;;14.30;83.50;;;;;;4976266;28;20015;-80
2023/03/23 17:26:56;;;;;;;2.67;1.35;;;14.20;83.70;;;;;;4968198;28;20213;-79
2023/03/23 17:29:22;;;;;;;2.92;1.60;;;14.20;83.50;;;;;;4967408;28;20497;-78
2023/03/23 17:31:49;;;;;;;2.40;1.63;;;14.20;83.80;;;;;;4974058;28;20058;-78
2023/03/23 17:34:16;;;;;;;3.15;1.30;;;14.30;83.90;;;;;;4971470;28;20030;-78
2023/03/23 17:36:42;;;;;;;4.18;1.45;;;14.10;84.30;;;;;;4974036;28;20031;-77
2023/03/23 17:39:08;;;;;;;4.57;1.77;;;14.10;84.40;;;;;;4974407;28;20115;-78
2023/03/23 17:41:34;;;;;;;2.20;1.38;;;14.10;84.70;;;;;;4974970;28;20027;-78
2023/03/23 17:43:59;;;;;;;2.38;1.50;;;14.10;84.40;;;;;;4974644;28;20110;-77
2023/03/23 17:46:26;;;;;;;2.28;1.35;;;14.00;84.90;;;;;;4973789;28;20034;-78
2023/03/23 17:48:52;;;;;;;2.88;1.85;;;14.00;85.00;;;;;;4975754;28;20015;-78
2023/03/23 17:51:17;;;;;;;2.00;1.30;;;14.00;85.10;;;;;;4975066;28;20054;-78
2023/03/23 17:53:43;;;;;;;2.63;1.20;;;13.90;85.30;;;;;;4969559;28;20050;-77
2023/03/23 17:56:09;;;;;;;1.55;0.95;;;14.00;85.50;;;;;;4975212;28;20074;-78
2023/03/23 17:58:35;;;;;;;3.75;1.30;;;13.80;85.50;;;;;;4956405;28;20479;-78
2023/03/23 18:01:01;;;;;;;2.85;1.35;;;13.90;85.70;;;;;;4974272;28;20054;-79
2023/03/23 18:03:27;;;;;;;3.17;1.33;;;13.90;86.00;;;;;;4971528;28;20023;-80
2023/03/23 18:06:02;;;;;;;3.72;1.50;;;13.90;85.90;;;;;;4956583;28;20042;-79
2023/03/23 18:08:29;;;;;;;3.75;1.42;;;13.80;86.00;;;;;;4966401;28;20069;-75
2023/03/23 18:10:56;;;;;;;2.72;1.40;;;13.80;86.20;;;;;;4973802;28;20503;-79
2023/03/23 18:13:25;;;;;;;5.75;1.52;;;13.80;86.30;;;;;;4976061;28;20027;-79
2023/03/23 18:15:54;;;;;;;2.90;1.60;;;13.70;86.30;;;;;;4958539;28;20476;-78
2023/03/23 18:18:21;;;;;;;3.43;1.80;;;13.80;86.20;;;;;;4957764;28;20029;-79
2023/03/23 18:20:47;;;;;;;2.25;1.38;;;13.80;86.10;;;;;;4979439;28;20371;-82
2023/03/23 18:23:13;;;;;;;2.17;1.33;;;13.80;86.30;;;;;;4978735;28;20045;-82
2023/03/23 18:25:39;;;;;;;1.83;1.33;;;13.80;86.20;;;;;;4978404;28;20031;-84
2023/03/23 18:28:06;;;;;;;2.92;1.52;;;13.80;86.10;;;;;;4978700;28;20050;-82
2023/03/23 18:30:34;;;;;;;3.55;1.67;;;13.80;86.50;;;;;;4982116;28;20068;-81
2023/03/23 18:33:00;;;;;;;3.67;1.50;;;13.70;86.70;;;;;;4965234;28;20061;-81